createdAt,value
2022-11-14T00:00:54.706Z,10.73
2022-11-14T00:03:21.478Z,11.93
2022-11-14T00:05:48.181Z,10.13
2022-11-14T00:08:23.789Z,11.40
2022-11-14T00:10:51.425Z,11.13
2022-11-14T00:13:19.599Z,10.37
2022-11-14T00:15:50.405Z,10.60
2022-11-14T00:18:17.819Z,11.23
2022-11-14T00:20:47.423Z,10.93
2022-11-14T00:23:13.977Z,10.97
2022-11-14T00:25:40.760Z,10.80
2022-11-14T00:28:07.285Z,11.10
2022-11-14T00:30:33.986Z,11.00
2022-11-14T00:33:00.529Z,10.17
2022-11-14T00:35:27.104Z,10.33
2022-11-14T00:37:53.704Z,10.57
2022-11-14T00:40:20.349Z,10.77
2022-11-14T00:42:47.005Z,10.80
2022-11-14T00:45:13.658Z,11.50
2022-11-14T00:47:40.189Z,10.63
2022-11-14T00:50:07.428Z,11.10
2022-11-14T00:52:33.992Z,10.93
2022-11-14T00:55:00.566Z,10.70
2022-11-14T00:57:27.139Z,11.10
2022-11-14T00:59:55.759Z,11.20
2022-11-14T01:02:22.932Z,11.30
2022-11-14T01:04:49.459Z,13.43
2022-11-14T01:07:16.096Z,12.13
2022-11-14T01:09:42.623Z,11.70
2022-11-14T01:12:09.218Z,13.40
2022-11-14T01:14:35.976Z,13.57
2022-11-14T01:17:02.475Z,12.57
2022-11-14T01:19:28.971Z,14.10
2022-11-14T01:21:55.529Z,11.37
2022-11-14T01:24:22.053Z,12.00
2022-11-14T01:26:48.566Z,12.50
2022-11-14T01:29:15.447Z,11.33
2022-11-14T01:31:42.125Z,13.67
2022-11-14T01:34:08.658Z,11.50
2022-11-14T01:36:35.312Z,12.40
2022-11-14T01:39:01.836Z,11.00
2022-11-14T01:41:28.379Z,11.20
2022-11-14T01:43:54.964Z,11.77
2022-11-14T01:46:34.143Z,11.27
2022-11-14T01:49:06.708Z,10.50
2022-11-14T01:51:39.184Z,9.10
2022-11-14T01:54:16.756Z,10.30
2022-11-14T01:56:48.970Z,11.53
2022-11-14T01:59:23.907Z,9.53
2022-11-14T02:01:52.866Z,11.23
2022-11-14T02:04:31.579Z,9.37
2022-11-14T02:07:01.121Z,9.17
2022-11-14T02:09:34.330Z,9.80
2022-11-14T02:12:03.532Z,10.10
2022-11-14T02:14:30.849Z,9.87
2022-11-14T02:17:27.209Z,10.53
2022-11-14T02:20:04.829Z,11.00
2022-11-14T02:22:32.137Z,9.43
2022-11-14T02:24:58.671Z,9.93
2022-11-14T02:27:25.275Z,12.00
2022-11-14T02:29:52.055Z,9.73
2022-11-14T02:32:18.654Z,10.30
2022-11-14T02:34:45.152Z,11.20
2022-11-14T02:37:11.713Z,12.63
2022-11-14T02:39:39.040Z,10.87
2022-11-14T02:42:05.775Z,12.57
2022-11-14T02:44:32.403Z,12.70
2022-11-14T02:46:58.900Z,10.37
2022-11-14T02:49:25.393Z,11.73
2022-11-14T02:51:52.095Z,11.13
2022-11-14T02:54:18.592Z,12.03
2022-11-14T02:56:45.076Z,10.67
2022-11-14T02:59:11.776Z,10.87
2022-11-14T03:01:38.434Z,10.93
2022-11-14T03:04:05.304Z,10.27
2022-11-14T03:06:31.920Z,11.97
2022-11-14T03:08:58.424Z,10.20
2022-11-14T03:11:24.984Z,11.60
2022-11-14T03:13:51.731Z,11.10
2022-11-14T03:16:18.255Z,11.00
2022-11-14T03:18:44.838Z,12.10
2022-11-14T03:21:17.652Z,11.90
2022-11-14T03:23:44.333Z,10.83
2022-11-14T03:26:13.226Z,11.80
2022-11-14T03:28:40.807Z,11.47
2022-11-14T03:31:08.646Z,10.87
2022-11-14T03:33:35.879Z,10.23
2022-11-14T03:36:04.180Z,11.03
2022-11-14T03:38:31.384Z,10.40
2022-11-14T03:40:59.633Z,11.87
2022-11-14T03:43:27.088Z,11.57
2022-11-14T03:45:53.622Z,12.17
2022-11-14T03:48:20.143Z,12.60
2022-11-14T03:50:46.853Z,13.13
2022-11-14T03:53:13.397Z,12.60
2022-11-14T03:55:40.231Z,10.87
2022-11-14T03:58:06.935Z,11.90
2022-11-14T04:00:33.477Z,11.27
2022-11-14T04:03:00.087Z,14.63
2022-11-14T04:05:26.852Z,12.83
2022-11-14T04:07:53.415Z,11.90
2022-11-14T04:10:20.246Z,12.83
2022-11-14T04:12:51.684Z,11.90
2022-11-14T04:15:19.468Z,11.90
2022-11-14T04:17:46.683Z,12.43
2022-11-14T04:20:14.358Z,12.07
2022-11-14T04:22:41.309Z,11.03
2022-11-14T04:25:09.011Z,12.60
2022-11-14T04:27:35.686Z,11.07
2022-11-14T04:30:02.540Z,10.70
2022-11-14T04:32:29.138Z,10.60
2022-11-14T04:34:55.834Z,10.13
2022-11-14T04:37:22.980Z,10.77
2022-11-14T04:39:49.487Z,11.57
2022-11-14T04:42:16.232Z,11.90
2022-11-14T04:44:42.803Z,9.77
2022-11-14T04:47:09.302Z,11.37
2022-11-14T04:49:36.058Z,9.73
2022-11-14T04:52:03.047Z,10.30
2022-11-14T04:54:29.577Z,9.67
2022-11-14T04:56:56.308Z,15.33
2022-11-14T04:59:22.826Z,12.67
2022-11-14T05:01:49.453Z,13.57
2022-11-14T05:04:16.086Z,10.93
2022-11-14T05:06:42.845Z,10.60
2022-11-14T05:09:09.718Z,7.83
2022-11-14T05:11:36.217Z,7.50
2022-11-14T05:14:02.916Z,8.37
2022-11-14T05:16:29.441Z,7.93
2022-11-14T05:18:56.121Z,8.30
2022-11-14T05:21:22.656Z,8.03
2022-11-14T05:23:49.140Z,7.53
2022-11-14T05:26:17.551Z,6.60
2022-11-14T05:28:44.535Z,6.00
2022-11-14T05:31:13.721Z,6.47
2022-11-14T05:33:40.473Z,6.27
2022-11-14T05:36:12.925Z,6.57
2022-11-14T05:38:39.607Z,6.63
2022-11-14T05:41:11.996Z,6.70
2022-11-14T05:43:39.134Z,5.77
2022-11-14T05:46:07.733Z,5.37
2022-11-14T05:48:34.466Z,6.33
2022-11-14T05:51:02.716Z,6.00
2022-11-14T05:53:30.593Z,6.33
2022-11-14T05:56:02.119Z,6.80
2022-11-14T05:58:29.218Z,6.07
2022-11-14T06:01:07.913Z,6.80
2022-11-14T06:03:36.624Z,6.33
2022-11-14T06:06:05.911Z,6.60
2022-11-14T06:08:33.469Z,6.00
2022-11-14T06:11:11.984Z,7.00
2022-11-14T06:13:39.055Z,7.90
2022-11-14T06:16:09.273Z,7.20
2022-11-14T06:18:36.399Z,7.40
2022-11-14T06:21:06.761Z,8.20
2022-11-14T06:23:33.372Z,7.60
2022-11-14T06:26:05.971Z,7.63
2022-11-14T06:28:33.032Z,6.87
2022-11-14T06:31:04.578Z,7.97
2022-11-14T06:33:35.491Z,7.57
2022-11-14T06:36:04.615Z,8.00
2022-11-14T06:38:32.930Z,8.90
2022-11-14T06:41:07.837Z,8.73
2022-11-14T06:43:43.132Z,9.33
2022-11-14T06:46:11.310Z,8.97
2022-11-14T06:48:38.728Z,8.23
2022-11-14T06:51:06.177Z,8.10
2022-11-14T06:53:34.681Z,8.43
2022-11-14T06:56:07.719Z,8.03
2022-11-14T06:58:36.997Z,7.03
2022-11-14T07:01:12.542Z,7.63
2022-11-14T07:03:39.656Z,7.77
2022-11-14T07:06:07.285Z,7.10
2022-11-14T07:08:34.805Z,6.80
2022-11-14T07:11:03.919Z,7.53
2022-11-14T07:13:31.596Z,6.47
2022-11-14T07:15:58.127Z,7.07
2022-11-14T07:18:24.851Z,8.70
2022-11-14T07:20:58.149Z,8.00
2022-11-14T07:23:24.685Z,7.27
2022-11-14T07:25:51.223Z,7.37
2022-11-14T07:28:17.855Z,7.70
2022-11-14T07:30:44.541Z,7.13
2022-11-14T07:33:11.303Z,8.33
2022-11-14T07:35:41.070Z,8.47
2022-11-14T07:38:07.813Z,8.57
2022-11-14T07:40:34.457Z,8.97
2022-11-14T07:43:01.885Z,7.57
2022-11-14T07:45:29.076Z,8.63
2022-11-14T07:48:01.037Z,7.90
2022-11-14T07:50:29.254Z,8.07
2022-11-14T07:52:57.567Z,8.40
2022-11-14T07:55:24.897Z,7.70
2022-11-14T07:57:55.293Z,8.73
2022-11-14T08:00:22.098Z,8.90
2022-11-14T08:02:48.704Z,8.33
2022-11-14T08:05:15.372Z,7.97
2022-11-14T08:07:41.874Z,7.23
2022-11-14T08:10:09.210Z,6.67
2022-11-14T08:12:36.011Z,6.13
2022-11-14T08:15:02.625Z,6.67
2022-11-14T08:17:29.184Z,6.30
2022-11-14T08:19:55.688Z,7.13
2022-11-14T08:22:22.209Z,12.70
2022-11-14T08:24:48.773Z,10.20
2022-11-14T08:27:15.328Z,8.70
2022-11-14T08:29:42.067Z,8.07
2022-11-14T08:32:08.710Z,6.20
2022-11-14T08:34:36.861Z,6.27
2022-11-14T08:37:03.725Z,6.40
2022-11-14T08:39:30.243Z,6.33
2022-11-14T08:41:56.919Z,6.17
2022-11-14T08:44:23.517Z,6.27
2022-11-14T08:46:50.674Z,5.70
2022-11-14T08:49:17.501Z,6.47
2022-11-14T08:51:44.068Z,6.33
2022-11-14T08:54:10.649Z,4.63
2022-11-14T08:56:37.433Z,4.90
2022-11-14T08:59:04.760Z,5.50
2022-11-14T09:01:32.801Z,4.90
2022-11-14T09:04:00.493Z,4.37
2022-11-14T09:06:27.445Z,4.20
2022-11-14T09:08:53.966Z,4.23
2022-11-14T09:11:20.566Z,3.90
2022-11-14T09:13:47.088Z,3.67
2022-11-14T09:16:13.618Z,3.60
2022-11-14T09:18:40.982Z,4.33
2022-11-14T09:21:09.057Z,4.40
2022-11-14T09:23:36.271Z,4.33
2022-11-14T09:26:08.838Z,4.17
2022-11-14T09:28:35.540Z,4.50
2022-11-14T09:31:07.741Z,4.20
2022-11-14T09:33:35.543Z,4.17
2022-11-14T09:36:07.848Z,4.30
2022-11-14T09:38:38.407Z,4.33
2022-11-14T09:41:25.287Z,4.30
2022-11-14T09:44:03.712Z,4.60
2022-11-14T09:46:39.888Z,4.37
2022-11-14T09:49:23.452Z,4.30
2022-11-14T09:51:58.315Z,5.37
2022-11-14T09:54:28.615Z,5.60
2022-11-14T09:56:55.260Z,4.87
2022-11-14T09:59:21.942Z,4.00
2022-11-14T10:02:05.814Z,4.50
2022-11-14T10:04:55.435Z,4.50
2022-11-14T10:07:49.741Z,4.37
2022-11-14T10:10:52.209Z,3.77
2022-11-14T10:13:46.345Z,3.20
2022-11-14T10:16:19.609Z,3.50
2022-11-14T10:19:11.350Z,3.83
2022-11-14T10:22:05.416Z,4.30
2022-11-14T10:24:37.672Z,3.80
2022-11-14T10:27:07.528Z,5.90
2022-11-14T10:30:28.201Z,9.20
2022-11-14T10:33:11.638Z,49.80
2022-11-14T10:35:47.979Z,13.07
2022-11-14T10:38:24.148Z,6.17
2022-11-14T10:40:58.164Z,4.80
2022-11-14T10:43:40.627Z,5.50
2022-11-14T10:46:28.628Z,4.30
2022-11-14T10:49:00.027Z,3.60
2022-11-14T10:51:37.746Z,3.10
2022-11-14T10:54:13.888Z,4.40
2022-11-14T10:56:48.104Z,3.90
2022-11-14T10:59:14.793Z,4.50
2022-11-14T11:01:56.250Z,3.30
2022-11-14T11:04:34.029Z,3.80
2022-11-14T11:07:08.230Z,4.13
2022-11-14T11:09:55.829Z,3.80
2022-11-14T11:12:37.415Z,4.30
2022-11-14T11:15:19.252Z,5.03
2022-11-14T11:17:57.101Z,5.33
2022-11-14T11:20:31.833Z,5.00
2022-11-14T11:23:11.940Z,4.60
2022-11-14T11:25:40.468Z,4.30
2022-11-14T11:28:19.276Z,4.27
2022-11-14T11:31:00.919Z,3.93
2022-11-14T11:33:30.684Z,4.10
2022-11-14T11:36:03.717Z,3.60
2022-11-14T11:38:32.375Z,3.50
2022-11-14T11:41:11.619Z,3.47
2022-11-14T11:44:07.316Z,3.53
2022-11-14T11:46:52.504Z,3.50
2022-11-14T11:49:35.385Z,3.77
2022-11-14T11:52:10.463Z,3.47
2022-11-14T11:55:08.109Z,3.50
2022-11-14T11:57:47.944Z,3.63
2022-11-14T12:00:21.967Z,3.60
2022-11-14T12:02:51.087Z,3.63
2022-11-14T12:05:41.726Z,3.57
2022-11-14T12:08:38.559Z,3.40
2022-11-14T12:11:14.360Z,3.10
2022-11-14T12:13:49.634Z,3.03
2022-11-14T12:16:51.166Z,3.30
2022-11-14T12:19:39.165Z,5.07
2022-11-14T12:22:39.864Z,3.47
2022-11-14T12:25:09.339Z,3.40
2022-11-14T12:27:42.269Z,3.23
2022-11-14T12:30:15.036Z,3.87
2022-11-14T12:32:47.771Z,3.50
2022-11-14T12:35:35.860Z,3.80
2022-11-14T12:38:05.692Z,4.30
2022-11-14T12:40:41.333Z,4.07
2022-11-14T12:43:40.469Z,5.20
2022-11-14T12:46:09.790Z,5.97
2022-11-14T12:48:38.867Z,5.77
2022-11-14T12:51:42.396Z,6.00
2022-11-14T12:54:42.360Z,5.30
2022-11-14T12:57:34.473Z,5.63
2022-11-14T13:00:04.813Z,5.70
2022-11-14T13:02:40.555Z,5.60
2022-11-14T13:05:31.251Z,5.97
2022-11-14T13:08:25.632Z,5.57
2022-11-14T13:10:52.572Z,5.37
2022-11-14T13:13:37.796Z,5.37
2022-11-14T13:16:23.393Z,6.00
2022-11-14T13:19:35.033Z,5.20
2022-11-14T13:22:14.136Z,4.90
2022-11-14T13:24:58.805Z,8.17
2022-11-14T13:27:52.421Z,7.73
2022-11-14T13:30:16.266Z,4.50
2022-11-14T13:32:42.707Z,4.40
2022-11-14T13:35:23.508Z,4.27
2022-11-14T13:38:17.838Z,3.50
2022-11-14T13:41:05.271Z,3.70
2022-11-14T13:44:16.893Z,3.57
2022-11-14T13:46:48.894Z,3.50
2022-11-14T13:49:30.740Z,4.43
2022-11-14T13:51:57.920Z,2.90
2022-11-14T13:54:24.557Z,3.30
2022-11-14T13:57:13.746Z,2.57
2022-11-14T13:59:46.338Z,2.90
2022-11-14T14:02:34.156Z,3.20
2022-11-14T14:05:39.377Z,3.30
2022-11-14T14:08:30.055Z,3.60
2022-11-14T14:11:10.284Z,6.00
2022-11-14T14:13:55.423Z,4.53
2022-11-14T14:16:34.676Z,4.33
2022-11-14T14:19:12.810Z,3.30
2022-11-14T14:21:52.209Z,2.97
2022-11-14T14:24:46.253Z,2.67
2022-11-14T14:27:31.146Z,2.80
2022-11-14T14:30:16.322Z,2.93
2022-11-14T14:33:02.085Z,2.80
2022-11-14T14:35:39.028Z,2.80
2022-11-14T14:38:12.347Z,2.50
2022-11-14T14:40:41.129Z,3.20
2022-11-14T14:43:13.002Z,3.20
2022-11-14T14:45:51.613Z,2.70
2022-11-14T14:48:23.549Z,2.83
2022-11-14T14:50:58.989Z,2.50
2022-11-14T14:53:27.061Z,3.27
2022-11-14T14:56:02.191Z,3.23
2022-11-14T14:58:33.855Z,2.90
2022-11-14T15:01:09.913Z,3.40
2022-11-14T15:03:42.284Z,3.17
2022-11-14T15:06:33.082Z,3.80
2022-11-14T15:09:14.148Z,4.23
2022-11-14T15:11:44.072Z,3.93
2022-11-14T15:14:17.820Z,3.70
2022-11-14T15:16:47.051Z,3.70
2022-11-14T15:19:15.727Z,3.83
2022-11-14T15:21:43.320Z,3.63
2022-11-14T15:24:19.092Z,4.00
2022-11-14T15:26:47.553Z,4.67
2022-11-14T15:29:21.693Z,4.33
2022-11-14T15:32:05.040Z,4.27
2022-11-14T15:34:38.165Z,4.90
2022-11-14T15:37:10.604Z,4.30
2022-11-14T15:39:38.269Z,4.03
2022-11-14T15:42:29.524Z,4.43
2022-11-14T15:44:56.208Z,3.80
2022-11-14T15:47:28.459Z,4.40
2022-11-14T15:50:04.178Z,3.80
2022-11-14T15:52:39.765Z,3.40
2022-11-14T15:55:32.939Z,3.53
2022-11-14T15:58:21.322Z,3.60
2022-11-14T16:00:52.110Z,3.70
2022-11-14T16:03:22.429Z,3.70
2022-11-14T16:05:48.961Z,3.50
2022-11-14T16:08:15.508Z,5.90
2022-11-14T16:10:42.072Z,5.50
2022-11-14T16:13:08.591Z,6.63
2022-11-14T16:15:35.125Z,4.73
2022-11-14T16:18:01.642Z,4.40
2022-11-14T16:20:31.430Z,4.40
2022-11-14T16:22:59.269Z,4.67
2022-11-14T16:25:28.991Z,3.90
2022-11-14T16:27:55.653Z,3.87
2022-11-14T16:30:23.790Z,4.20
2022-11-14T16:32:51.999Z,4.50
2022-11-14T16:35:21.934Z,5.53
2022-11-14T16:37:48.986Z,4.90
2022-11-14T16:40:21.501Z,3.43
2022-11-14T16:42:48.077Z,3.80
2022-11-14T16:45:16.075Z,3.60
2022-11-14T16:47:42.929Z,3.87
2022-11-14T16:50:10.145Z,3.83
2022-11-14T16:52:39.185Z,4.00
2022-11-14T16:55:07.729Z,4.00
2022-11-14T16:57:34.679Z,3.87
2022-11-14T17:00:01.380Z,3.10
2022-11-14T17:02:27.870Z,4.00
2022-11-14T17:04:54.415Z,3.70
2022-11-14T17:07:23.002Z,3.40
2022-11-14T17:09:49.729Z,3.27
2022-11-14T17:12:16.427Z,3.03
2022-11-14T17:14:43.098Z,3.10
2022-11-14T17:17:09.871Z,3.90
2022-11-14T17:19:36.423Z,3.10
2022-11-14T17:22:02.975Z,2.63
2022-11-14T17:24:31.569Z,2.67
2022-11-14T17:26:58.389Z,3.40
2022-11-14T17:29:25.085Z,2.47
2022-11-14T17:31:51.645Z,2.60
2022-11-14T17:34:18.141Z,2.70
2022-11-14T17:36:44.970Z,2.90
2022-11-14T17:39:11.486Z,3.10
2022-11-14T17:41:38.716Z,2.57
2022-11-14T17:44:05.422Z,2.57
2022-11-14T17:46:32.087Z,2.60
2022-11-14T17:48:59.094Z,3.20
2022-11-14T17:51:25.720Z,2.40
2022-11-14T17:53:52.341Z,2.73
2022-11-14T17:56:21.671Z,4.90
2022-11-14T17:58:50.623Z,4.53
2022-11-14T18:01:19.800Z,7.63
2022-11-14T18:03:46.537Z,10.93
2022-11-14T18:06:19.446Z,5.57
2022-11-14T18:08:46.577Z,6.33
2022-11-14T18:11:14.974Z,4.77
2022-11-14T18:13:42.159Z,4.43
2022-11-14T18:16:13.293Z,4.03
2022-11-14T18:18:40.384Z,3.00
2022-11-14T18:21:14.630Z,3.37
2022-11-14T18:23:41.213Z,2.93
2022-11-14T18:26:15.469Z,2.83
2022-11-14T18:28:42.692Z,3.50
2022-11-14T18:31:11.121Z,3.30
2022-11-14T18:33:39.109Z,3.40
2022-11-14T18:36:09.054Z,3.50
2022-11-14T18:38:35.872Z,3.63
2022-11-14T18:41:07.024Z,3.67
2022-11-14T18:43:34.138Z,3.77
2022-11-14T18:46:07.370Z,3.60
2022-11-14T18:48:34.857Z,3.67
2022-11-14T18:51:07.276Z,3.70
2022-11-14T18:53:35.739Z,3.40
2022-11-14T18:56:09.258Z,31.93
2022-11-14T18:58:39.755Z,5.07
2022-11-14T19:01:09.488Z,3.50
2022-11-14T19:03:36.050Z,4.83
2022-11-14T19:06:03.861Z,6.03
2022-11-14T19:08:30.352Z,8.50
2022-11-14T19:11:04.812Z,8.67
2022-11-14T19:13:31.718Z,7.57
2022-11-14T19:16:05.875Z,4.80
2022-11-14T19:18:32.721Z,3.47
2022-11-14T19:21:00.915Z,3.60
2022-11-14T19:23:29.228Z,3.80
2022-11-14T19:26:02.181Z,3.28
2022-11-14T19:28:31.709Z,6.20
2022-11-14T19:31:06.128Z,4.30
2022-11-14T19:33:33.553Z,3.73
2022-11-14T19:36:08.633Z,2.53
2022-11-14T19:38:35.505Z,2.83
2022-11-14T19:41:10.630Z,2.60
2022-11-14T19:43:38.193Z,3.60
2022-11-14T19:46:05.989Z,2.87
2022-11-14T19:48:33.525Z,2.73
2022-11-14T19:51:01.023Z,3.40
2022-11-14T19:53:27.662Z,3.00
2022-11-14T19:56:00.297Z,3.10
2022-11-14T19:58:27.016Z,3.03
2022-11-14T20:01:00.037Z,3.00
2022-11-14T20:03:26.695Z,3.03
2022-11-14T20:05:53.271Z,3.17
2022-11-14T20:08:19.826Z,3.07
2022-11-14T20:10:57.269Z,3.63
2022-11-14T20:13:25.478Z,4.67
2022-11-14T20:15:52.499Z,4.97
2022-11-14T20:18:19.090Z,5.40
2022-11-14T20:20:45.653Z,3.63
2022-11-14T20:23:12.550Z,3.73
2022-11-14T20:25:39.332Z,5.53
2022-11-14T20:28:08.048Z,4.40
2022-11-14T20:30:41.636Z,4.87
2022-11-14T20:33:08.781Z,4.57
2022-11-14T20:35:39.416Z,6.00
2022-11-14T20:38:06.577Z,4.77
2022-11-14T20:40:35.314Z,5.43
2022-11-14T20:43:02.397Z,8.10
2022-11-14T20:45:28.961Z,3.10
2022-11-14T20:47:55.494Z,3.40
2022-11-14T20:50:22.076Z,3.53
2022-11-14T20:52:49.041Z,3.70
2022-11-14T20:55:15.916Z,5.30
2022-11-14T20:57:42.538Z,4.53
2022-11-14T21:00:09.841Z,4.17
2022-11-14T21:02:36.353Z,3.80
2022-11-14T21:05:02.923Z,2.87
2022-11-14T21:07:29.717Z,3.50
2022-11-14T21:10:14.932Z,3.20
2022-11-14T21:12:45.588Z,3.47
2022-11-14T21:15:14.973Z,3.57
2022-11-14T21:17:41.673Z,3.50
2022-11-14T21:20:08.983Z,4.03
2022-11-14T21:22:35.490Z,4.20
2022-11-14T21:25:02.085Z,3.53
2022-11-14T21:27:28.606Z,3.97
2022-11-14T21:29:55.128Z,3.77
2022-11-14T21:32:21.801Z,4.13
2022-11-14T21:34:48.281Z,3.60
2022-11-14T21:37:14.776Z,4.07
2022-11-14T21:39:41.360Z,3.90
2022-11-14T21:42:07.900Z,3.80
2022-11-14T21:44:34.402Z,3.70
2022-11-14T21:47:00.936Z,3.13
2022-11-14T21:49:27.502Z,3.50
2022-11-14T21:51:54.021Z,3.30
2022-11-14T21:54:20.520Z,3.20
2022-11-14T21:56:47.049Z,3.00
2022-11-14T21:59:17.736Z,3.43
2022-11-14T22:02:06.129Z,3.63
2022-11-14T22:04:33.455Z,3.17
2022-11-14T22:07:02.657Z,3.23
2022-11-14T22:09:29.844Z,3.43
2022-11-14T22:11:56.787Z,3.30
2022-11-14T22:14:23.741Z,3.20
2022-11-14T22:16:50.689Z,3.20
2022-11-14T22:19:18.824Z,3.53
2022-11-14T22:21:45.480Z,2.67
2022-11-14T22:24:12.205Z,3.40
2022-11-14T22:26:40.135Z,3.00
2022-11-14T22:29:07.552Z,3.00
2022-11-14T22:31:34.633Z,3.30
2022-11-14T22:34:01.280Z,3.27
2022-11-14T22:36:28.200Z,3.00
2022-11-14T22:38:56.417Z,3.30
2022-11-14T22:41:31.933Z,2.87
2022-11-14T22:44:00.306Z,2.67
2022-11-14T22:46:27.475Z,3.03
2022-11-14T22:48:54.789Z,2.80
2022-11-14T22:51:23.545Z,3.70
2022-11-14T22:53:55.368Z,3.30
2022-11-14T22:56:24.513Z,3.10
2022-11-14T22:58:51.196Z,3.40
2022-11-14T23:01:24.370Z,3.00
2022-11-14T23:03:56.695Z,3.40
2022-11-14T23:06:24.380Z,3.30
2022-11-14T23:08:51.953Z,3.40
2022-11-14T23:11:21.176Z,3.33
2022-11-14T23:13:50.346Z,3.10
2022-11-14T23:16:20.143Z,3.00
2022-11-14T23:18:47.533Z,3.40
2022-11-14T23:21:17.820Z,3.07
2022-11-14T23:23:44.680Z,3.57
2022-11-14T23:26:17.504Z,3.43
2022-11-14T23:28:44.222Z,3.20
2022-11-14T23:31:12.017Z,3.50
2022-11-14T23:33:39.081Z,3.50
2022-11-14T23:36:05.699Z,3.13
2022-11-14T23:38:32.204Z,3.40
2022-11-14T23:41:01.415Z,3.30
2022-11-14T23:43:29.051Z,3.00
2022-11-14T23:45:56.298Z,3.17
2022-11-14T23:48:23.596Z,3.63
2022-11-14T23:50:55.415Z,3.57
2022-11-14T23:53:22.730Z,3.13
2022-11-14T23:56:00.208Z,3.23
2022-11-14T23:58:27.681Z,3.10
